Time;durP1;ratioP1;P1;durP2;ratioP2;P2;SDS_P1;SDS_P2;PMS_P1;PMS_P2;Temp;Humidity;BMP_temperature;BMP_pressure;BME280_temperature;BME280_humidity;BME280_pressure;Samples;Min_cycle;Max_cycle;Signal;HPM_P1;HPM_P2
2022/05/20 00:02:51;;;;;;;3.85;2.50;;;21.90;65.60;;;;;;10419795;28;20035;-52
2022/05/20 00:07:52;;;;;;;3.60;2.53;;;21.90;65.50;;;;;;10420473;28;20060;-54
2022/05/20 00:12:52;;;;;;;3.58;2.95;;;21.90;65.40;;;;;;10420927;28;20057;-54
2022/05/20 00:17:54;;;;;;;3.72;2.20;;;21.90;65.40;;;;;;10417547;28;20152;-53
2022/05/20 00:22:56;;;;;;;2.92;2.30;;;21.90;65.30;;;;;;10422394;28;20528;-53
2022/05/20 00:27:57;;;;;;;3.35;2.13;;;21.90;65.20;;;;;;10420288;28;20110;-52
2022/05/20 00:32:58;;;;;;;3.13;2.03;;;21.90;65.20;;;;;;10420093;28;20106;-55
2022/05/20 00:37:58;;;;;;;3.88;2.78;;;21.90;65.20;;;;;;10419781;28;20055;-52
2022/05/20 00:43:26;;;;;;;3.85;2.40;;;21.80;65.00;;;;;;10419912;28;20139;-55
2022/05/20 00:48:28;;;;;;;4.13;2.10;;;21.80;65.00;;;;;;10419110;28;20065;-53
2022/05/20 00:53:36;;;;;;;3.03;2.20;;;21.80;65.00;;;;;;10419678;28;20116;-53
2022/05/20 00:58:40;;;;;;;3.53;2.40;;;21.80;64.90;;;;;;10420756;28;20041;-53
2022/05/20 01:03:42;;;;;;;5.72;3.05;;;21.80;64.70;;;;;;10419228;28;20555;-52
2022/05/20 01:08:43;;;;;;;3.92;2.67;;;21.80;64.70;;;;;;10418588;28;20452;-51
2022/05/20 01:13:47;;;;;;;3.38;1.88;;;21.80;64.70;;;;;;10417735;28;20057;-52
2022/05/20 01:18:53;;;;;;;3.55;2.03;;;21.80;64.60;;;;;;10418425;28;20386;-54
2022/05/20 01:24:02;;;;;;;2.75;1.90;;;21.80;64.60;;;;;;10419672;28;20025;-54
2022/05/20 01:29:03;;;;;;;3.15;1.88;;;21.70;64.50;;;;;;10417735;28;20034;-53
2022/05/20 01:34:04;;;;;;;2.35;1.80;;;21.70;64.30;;;;;;10417818;28;20091;-53
2022/05/20 01:39:04;;;;;;;2.47;1.73;;;21.70;64.30;;;;;;10417384;28;20068;-54
2022/05/20 01:44:37;;;;;;;2.78;1.80;;;21.70;64.30;;;;;;10417389;28;20032;-52
2022/05/20 01:50:18;;;;;;;2.25;1.95;;;21.70;64.20;;;;;;10415833;28;20095;-53
2022/05/20 01:55:56;;;;;;;2.33;1.60;;;21.70;64.20;;;;;;10416743;28;20543;-54
2022/05/20 02:01:01;;;;;;;2.78;1.75;;;21.70;64.10;;;;;;10408858;28;20041;-54
2022/05/20 02:06:15;;;;;;;3.00;2.15;;;21.70;64.20;;;;;;10415581;28;20067;-54
2022/05/20 02:11:28;;;;;;;3.22;2.22;;;21.70;64.10;;;;;;10416267;28;20064;-54
2022/05/20 02:16:37;;;;;;;4.28;2.33;;;21.60;64.00;;;;;;10415960;28;20087;-54
2022/05/20 02:21:42;;;;;;;2.33;1.97;;;21.60;63.90;;;;;;10416904;28;20087;-54
2022/05/20 02:26:51;;;;;;;2.67;1.70;;;21.60;63.90;;;;;;10430771;28;20311;-53
2022/05/20 02:32:30;;;;;;;1.63;1.52;;;21.60;63.80;;;;;;10409917;28;20053;-55
2022/05/20 02:37:35;;;;;;;2.05;1.60;;;21.60;63.70;;;;;;10412660;28;20049;-52
2022/05/20 02:42:36;;;;;;;1.73;1.30;;;21.60;63.70;;;;;;10414020;28;20029;-53
2022/05/20 02:47:37;;;;;;;1.77;1.58;;;21.50;63.60;;;;;;10414856;28;20029;-53
2022/05/20 02:52:38;;;;;;;2.95;1.83;;;21.50;63.50;;;;;;10413779;28;20029;-53
2022/05/20 02:57:39;;;;;;;2.70;1.63;;;21.50;63.50;;;;;;10413302;28;20033;-54
2022/05/20 03:08:00;;;;;;;2.28;1.63;;;21.50;63.40;;;;;;10414780;28;20491;-54
2022/05/20 03:13:04;;;;;;;2.35;1.60;;;21.50;63.30;;;;;;10412721;28;20116;-53
2022/05/20 03:18:05;;;;;;;2.08;1.27;;;21.50;63.30;;;;;;10413672;28;20037;-53
2022/05/20 03:23:09;;;;;;;2.25;1.50;;;21.50;63.20;;;;;;10414822;28;20029;-53
2022/05/20 03:28:10;;;;;;;2.13;1.73;;;21.50;63.10;;;;;;10428259;28;20053;-54
2022/05/20 03:33:11;;;;;;;2.67;1.48;;;21.50;62.90;;;;;;10428172;28;20550;-53
2022/05/20 03:38:12;;;;;;;1.83;1.48;;;21.50;62.90;;;;;;10408752;28;20067;-53
2022/05/20 03:43:12;;;;;;;2.67;1.10;;;21.40;62.80;;;;;;10411583;28;20108;-55
2022/05/20 03:48:13;;;;;;;2.33;1.73;;;21.40;62.80;;;;;;10412639;28;20069;-53
2022/05/20 03:53:14;;;;;;;2.30;1.63;;;21.50;62.90;;;;;;10413016;28;20065;-52
2022/05/20 03:58:15;;;;;;;2.60;1.98;;;21.40;62.90;;;;;;10411364;28;20035;-54
2022/05/20 04:03:16;;;;;;;2.00;1.42;;;21.40;62.80;;;;;;10412838;28;20132;-53
2022/05/20 04:08:17;;;;;;;1.75;1.58;;;21.40;63.40;;;;;;10412409;28;20053;-53
2022/05/20 04:13:19;;;;;;;2.58;1.58;;;21.40;62.80;;;;;;10411694;28;20069;-52
2022/05/20 04:18:20;;;;;;;3.05;1.45;;;21.40;62.80;;;;;;10409199;28;20079;-53
2022/05/20 04:23:21;;;;;;;2.20;1.50;;;21.40;62.70;;;;;;10413125;28;20562;-50
2022/05/20 04:28:21;;;;;;;3.42;1.35;;;21.40;62.70;;;;;;10409837;28;20060;-54
2022/05/20 04:33:23;;;;;;;2.67;1.67;;;21.30;62.60;;;;;;10411040;28;20079;-54
2022/05/20 04:38:24;;;;;;;2.67;1.65;;;21.30;62.60;;;;;;10409870;28;20401;-54
2022/05/20 04:48:44;;;;;;;2.13;1.55;;;21.30;62.60;;;;;;10417354;28;20162;-52
2022/05/20 04:59:04;;;;;;;1.80;1.42;;;21.30;62.50;;;;;;10412105;28;20037;-53
2022/05/20 05:04:04;;;;;;;3.17;1.70;;;21.30;62.60;;;;;;10434250;28;20113;-49
2022/05/20 05:09:05;;;;;;;4.45;1.80;;;21.30;63.10;;;;;;10420183;28;20112;-54
2022/05/20 05:14:13;;;;;;;3.55;1.40;;;21.40;63.70;;;;;;10418711;28;20142;-54
2022/05/20 05:19:14;;;;;;;5.00;1.70;;;21.50;63.70;;;;;;10417484;28;20412;-50
2022/05/20 05:24:14;;;;;;;7.05;1.77;;;21.40;64.40;;;;;;10421380;28;20164;-53
2022/05/20 05:29:15;;;;;;;4.28;1.58;;;21.50;64.30;;;;;;10417822;28;20060;-54
2022/05/20 05:34:16;;;;;;;3.88;2.13;;;21.50;64.30;;;;;;10417218;28;20508;-55
2022/05/20 05:39:16;;;;;;;4.65;2.72;;;21.50;65.00;;;;;;10416618;28;20544;-54
2022/05/20 05:44:18;;;;;;;4.88;2.28;;;21.50;65.30;;;;;;10416384;28;20112;-55
2022/05/20 05:49:18;;;;;;;6.22;1.75;;;21.50;65.50;;;;;;10396534;28;20371;-55
2022/05/20 05:54:19;;;;;;;5.82;2.78;;;21.50;65.30;;;;;;10416659;28;20117;-55
2022/05/20 05:59:19;;;;;;;10.65;5.47;;;21.50;65.60;;;;;;10416144;28;20113;-56
2022/05/20 06:04:20;;;;;;;11.07;6.80;;;21.40;64.00;;;;;;10415977;28;20466;-54
2022/05/20 06:09:22;;;;;;;10.35;6.05;;;21.40;63.80;;;;;;10414090;28;20441;-56
2022/05/20 06:14:23;;;;;;;19.33;8.40;;;21.40;63.40;;;;;;10414709;28;20065;-50
2022/05/20 06:19:24;;;;;;;11.63;6.55;;;21.40;62.60;;;;;;10410725;28;20034;-54
2022/05/20 06:24:25;;;;;;;9.77;7.30;;;21.30;62.60;;;;;;10417392;28;20061;-56
2022/05/20 06:29:25;;;;;;;12.13;5.95;;;21.30;62.80;;;;;;10396960;28;20041;-54
2022/05/20 06:34:26;;;;;;;8.18;4.85;;;21.30;62.90;;;;;;10411981;28;20046;-55
2022/05/20 06:39:49;;;;;;;9.15;4.88;;;21.30;63.10;;;;;;10414575;28;20516;-56
2022/05/20 06:44:47;;;;;;;7.25;4.38;;;21.30;63.10;;;;;;10414048;28;20186;-55
2022/05/20 06:49:48;;;;;;;7.88;4.55;;;21.30;63.20;;;;;;10414239;28;20086;-55
2022/05/20 06:54:49;;;;;;;7.97;4.13;;;21.30;63.30;;;;;;10414166;28;20056;-55
2022/05/20 06:59:50;;;;;;;6.25;3.42;;;21.30;63.30;;;;;;10413680;28;20041;-55
2022/05/20 07:04:51;;;;;;;3.70;2.90;;;21.30;63.40;;;;;;10413865;28;20053;-55
2022/05/20 07:09:51;;;;;;;8.95;3.90;;;21.30;63.50;;;;;;10413114;28;20072;-55
2022/05/20 07:14:52;;;;;;;19.13;7.22;;;21.30;63.50;;;;;;10411614;28;20120;-53
2022/05/20 07:19:54;;;;;;;11.75;5.90;;;21.30;63.60;;;;;;10409592;28;20055;-56
2022/05/20 07:24:55;;;;;;;12.65;6.68;;;21.30;63.20;;;;;;10412947;28;20432;-55
2022/05/20 07:29:56;;;;;;;11.57;5.38;;;21.30;63.40;;;;;;10413518;28;20032;-56
2022/05/20 07:34:56;;;;;;;11.73;7.53;;;21.30;63.00;;;;;;10412486;28;20050;-56
2022/05/20 07:39:57;;;;;;;10.90;6.60;;;21.30;63.80;;;;;;10412463;28;20099;-56
2022/05/20 07:44:58;;;;;;;9.43;7.60;;;21.30;62.80;;;;;;10411602;28;20033;-54
2022/05/20 07:49:59;;;;;;;8.35;6.18;;;21.30;62.50;;;;;;10410979;28;20038;-56
2022/05/20 07:54:59;;;;;;;8.98;6.45;;;21.30;62.10;;;;;;10412355;28;20049;-52
2022/05/20 08:00:05;;;;;;;8.38;5.88;;;21.30;60.60;;;;;;10410331;28;20104;-52
2022/05/20 08:05:07;;;;;;;10.32;4.72;;;21.30;59.90;;;;;;10410713;28;20470;-51
2022/05/20 08:10:21;;;;;;;9.32;4.95;;;21.30;60.00;;;;;;10412247;28;20031;-53
2022/05/20 08:15:22;;;;;;;10.88;4.78;;;21.30;59.90;;;;;;10411949;28;20033;-55
2022/05/20 08:20:27;;;;;;;11.18;4.40;;;21.40;59.50;;;;;;10413058;28;20030;-52
2022/05/20 08:25:28;;;;;;;6.05;3.85;;;21.40;59.50;;;;;;10421890;28;20029;-55
2022/05/20 08:30:29;;;;;;;8.75;3.90;;;21.40;59.70;;;;;;10434948;28;20030;-54
2022/05/20 08:35:30;;;;;;;9.32;5.05;;;21.40;59.50;;;;;;10419226;28;20491;-52
2022/05/20 08:40:51;;;;;;;11.95;3.88;;;21.40;59.60;;;;;;10419123;28;20033;-52
2022/05/20 08:45:52;;;;;;;10.88;3.90;;;21.40;59.30;;;;;;10419278;28;20042;-52
2022/05/20 08:50:56;;;;;;;7.22;3.80;;;21.40;59.30;;;;;;10434050;28;20061;-52
2022/05/20 08:56:08;;;;;;;13.82;4.50;;;21.50;59.80;;;;;;10418534;28;20116;-54
2022/05/20 09:01:08;;;;;;;10.27;4.47;;;21.50;59.90;;;;;;10434074;28;20120;-52
2022/05/20 09:06:15;;;;;;;9.85;4.07;;;21.50;60.30;;;;;;10418516;28;20025;-53
2022/05/20 09:11:17;;;;;;;12.40;4.30;;;21.50;60.40;;;;;;10418206;28;20038;-53
2022/05/20 09:16:29;;;;;;;12.27;4.57;;;21.50;60.90;;;;;;10417838;28;20030;-51
2022/05/20 09:21:39;;;;;;;7.30;3.88;;;21.50;60.50;;;;;;10431353;28;20021;-53
2022/05/20 09:26:47;;;;;;;10.38;3.88;;;21.50;59.70;;;;;;10417259;28;20029;-53
2022/05/20 09:32:01;;;;;;;8.00;3.63;;;21.40;59.10;;;;;;10416042;28;20095;-53
2022/05/20 09:37:16;;;;;;;7.35;3.83;;;21.40;59.00;;;;;;10417042;28;20037;-52
2022/05/20 09:42:29;;;;;;;7.90;4.82;;;21.40;59.60;;;;;;10417073;28;20041;-53
2022/05/20 09:47:50;;;;;;;12.65;5.00;;;21.40;58.90;;;;;;10416860;28;20042;-55
2022/05/20 09:53:01;;;;;;;10.98;6.60;;;21.40;59.00;;;;;;10415727;28;20080;-52
2022/05/20 09:58:22;;;;;;;11.23;5.07;;;21.40;59.20;;;;;;10416405;28;20037;-53
2022/05/20 10:03:33;;;;;;;12.80;5.78;;;21.40;59.50;;;;;;10415879;28;20485;-53
2022/05/20 10:08:51;;;;;;;7.30;4.68;;;21.40;59.50;;;;;;10414817;28;20076;-48
2022/05/20 10:14:14;;;;;;;6.75;4.95;;;21.40;59.50;;;;;;10414627;28;20040;-55
2022/05/20 10:19:42;;;;;;;6.32;4.18;;;21.40;59.50;;;;;;10410787;28;20051;-54
2022/05/20 10:24:54;;;;;;;9.02;4.63;;;21.40;59.80;;;;;;10417656;28;20029;-53
2022/05/20 10:36:02;;;;;;;6.68;4.15;;;21.40;59.50;;;;;;10414510;28;20410;-50
2022/05/20 10:41:40;;;;;;;9.73;5.43;;;21.50;59.50;;;;;;10396463;28;20119;-51
2022/05/20 10:52:27;;;;;;;6.55;4.75;;;21.50;59.70;;;;;;10414392;28;20045;-49
2022/05/20 10:57:50;;;;;;;8.80;5.40;;;21.50;59.70;;;;;;10429708;28;20555;-52
2022/05/20 11:03:09;;;;;;;6.03;4.65;;;21.60;60.10;;;;;;10428807;28;20363;-52
2022/05/20 11:08:17;;;;;;;8.82;5.00;;;21.50;60.00;;;;;;10413650;28;20427;-56
2022/05/20 11:14:10;;;;;;;9.10;4.80;;;21.50;60.00;;;;;;10412695;28;20043;-54
2022/05/20 11:19:48;;;;;;;9.27;4.80;;;21.60;60.40;;;;;;10405288;28;20055;-54
2022/05/20 11:25:46;;;;;;;8.65;4.65;;;21.50;60.30;;;;;;10414512;28;20036;-53
2022/05/20 11:31:07;;;;;;;7.63;4.43;;;21.50;60.60;;;;;;10401821;28;20047;-54
2022/05/20 11:36:35;;;;;;;8.48;4.88;;;21.50;60.20;;;;;;10412896;28;20053;-54
2022/05/20 11:42:11;;;;;;;9.70;4.88;;;21.50;60.00;;;;;;10412296;28;20033;-53
2022/05/20 11:47:34;;;;;;;10.68;4.28;;;21.50;59.60;;;;;;10388512;28;20038;-52
2022/05/20 11:53:12;;;;;;;7.70;4.35;;;21.50;59.60;;;;;;10412092;28;20033;-51
2022/05/20 11:58:22;;;;;;;7.72;3.63;;;21.40;59.70;;;;;;10412204;28;20558;-52
2022/05/20 12:03:29;;;;;;;7.95;4.80;;;21.40;59.70;;;;;;10412083;28;20398;-53
2022/05/20 12:08:45;;;;;;;5.88;4.00;;;21.40;60.50;;;;;;10412154;28;20494;-53
2022/05/20 12:14:14;;;;;;;5.57;4.50;;;21.40;60.40;;;;;;10412017;28;20029;-52
2022/05/20 12:24:43;;;;;;;14.68;7.28;;;21.40;60.40;;;;;;10413053;28;20041;-53
2022/05/20 12:29:56;;;;;;;7.60;6.00;;;21.50;60.70;;;;;;10411051;28;20017;-53
2022/05/20 12:35:15;;;;;;;15.73;8.20;;;21.50;60.80;;;;;;10411439;28;20505;-51
2022/05/20 12:40:24;;;;;;;14.82;8.20;;;21.40;61.40;;;;;;10411518;28;20061;-52
2022/05/20 12:45:28;;;;;;;14.23;9.20;;;21.40;61.50;;;;;;10411690;28;20033;-54
2022/05/20 12:50:31;;;;;;;21.13;9.18;;;21.40;62.40;;;;;;10411093;28;20025;-52
2022/05/20 12:55:39;;;;;;;16.23;8.32;;;21.50;63.40;;;;;;10411189;28;20033;-52
2022/05/20 13:00:48;;;;;;;15.55;8.82;;;21.50;63.40;;;;;;10411215;28;20076;-54
2022/05/20 13:06:00;;;;;;;22.95;7.70;;;21.50;63.40;;;;;;10412199;28;20104;-57
2022/05/20 13:11:11;;;;;;;37.55;9.55;;;21.50;63.80;;;;;;10415576;28;20037;-55
2022/05/20 13:16:14;;;;;;;25.85;7.38;;;21.50;65.00;;;;;;10418222;28;20134;-55
2022/05/20 13:21:20;;;;;;;19.40;8.38;;;21.50;65.00;;;;;;10414885;28;20115;-56
2022/05/20 13:26:28;;;;;;;15.90;6.35;;;21.50;65.20;;;;;;10432538;28;20026;-55
2022/05/20 13:31:29;;;;;;;39.22;9.25;;;21.50;65.60;;;;;;10417090;28;20112;-54
2022/05/20 13:36:50;;;;;;;49.33;10.82;;;21.50;65.70;;;;;;10415946;28;20144;-55
2022/05/20 13:41:51;;;;;;;46.88;10.13;;;21.50;66.00;;;;;;10415834;28;20029;-54
2022/05/20 13:52:13;;;;;;;18.02;7.13;;;21.60;66.50;;;;;;10416642;28;20038;-55
2022/05/20 13:57:31;;;;;;;20.40;8.30;;;21.50;66.20;;;;;;10416433;28;20029;-53
2022/05/20 14:02:41;;;;;;;18.98;6.95;;;21.50;68.30;;;;;;10430178;28;20605;-56
2022/05/20 14:07:51;;;;;;;23.33;6.72;;;21.50;67.40;;;;;;10416713;28;20021;-56
2022/05/20 14:13:11;;;;;;;14.02;5.68;;;21.50;67.60;;;;;;10416130;28;20434;-56
2022/05/20 14:18:32;;;;;;;19.52;6.25;;;21.60;67.40;;;;;;10428575;28;20080;-54
2022/05/20 14:23:44;;;;;;;17.55;7.53;;;21.60;67.60;;;;;;10416541;28;20072;-57
2022/05/20 14:28:58;;;;;;;22.55;8.20;;;21.50;68.20;;;;;;10411906;28;20026;-56
2022/05/20 14:34:34;;;;;;;21.35;8.13;;;21.50;68.90;;;;;;10415397;28;20402;-57
2022/05/20 14:39:34;;;;;;;17.08;7.25;;;21.50;68.50;;;;;;10429004;28;20061;-57
2022/05/20 14:44:46;;;;;;;17.27;6.40;;;21.50;68.40;;;;;;10415242;28;20064;-58
2022/05/20 14:50:01;;;;;;;10.07;7.07;;;21.50;68.70;;;;;;10428456;28;20481;-56
2022/05/20 14:55:06;;;;;;;13.50;7.78;;;21.50;69.40;;;;;;10428776;28;20029;-57
2022/05/20 15:00:10;;;;;;;14.85;7.88;;;21.50;69.10;;;;;;10428476;28;20079;-55
2022/05/20 15:05:11;;;;;;;15.82;7.25;;;21.40;69.30;;;;;;10413897;28;20052;-56
2022/05/20 15:10:20;;;;;;;11.70;6.75;;;21.40;69.00;;;;;;10413528;28;20033;-55
2022/05/20 15:15:21;;;;;;;16.92;7.90;;;21.40;69.60;;;;;;10413211;28;20029;-55
2022/05/20 15:20:22;;;;;;;11.23;7.32;;;21.40;70.50;;;;;;10409688;28;20025;-53
2022/05/20 15:25:24;;;;;;;12.45;7.32;;;21.40;70.80;;;;;;10420610;28;20401;-57
2022/05/20 15:30:25;;;;;;;23.30;7.32;;;21.40;70.90;;;;;;10397406;28;20048;-56
2022/05/20 15:35:26;;;;;;;18.88;6.90;;;21.40;69.80;;;;;;10412702;28;20052;-56
2022/05/20 15:40:30;;;;;;;23.33;7.15;;;21.40;70.10;;;;;;10411350;28;20025;-56
2022/05/20 15:45:31;;;;;;;17.30;5.88;;;21.50;70.10;;;;;;10410787;28;20029;-57
2022/05/20 15:50:32;;;;;;;19.05;6.50;;;21.50;70.00;;;;;;10412000;28;20120;-56
2022/05/20 15:55:38;;;;;;;16.65;5.65;;;21.50;70.20;;;;;;10412600;28;20117;-56
2022/05/20 16:00:39;;;;;;;16.98;5.90;;;21.60;70.00;;;;;;10411962;28;20033;-55
2022/05/20 16:05:41;;;;;;;10.77;4.72;;;21.50;70.00;;;;;;10427488;28;20028;-56
2022/05/20 16:10:52;;;;;;;9.73;5.25;;;21.50;69.90;;;;;;10407623;28;20034;-58
2022/05/20 16:15:53;;;;;;;13.27;5.10;;;21.50;70.10;;;;;;10410441;28;20120;-56
2022/05/20 16:20:56;;;;;;;16.45;6.25;;;21.50;69.60;;;;;;10396643;28;20377;-58
2022/05/20 16:25:59;;;;;;;299.33;127.20;;;21.50;69.00;;;;;;10416457;28;20029;-56
2022/05/20 16:31:00;;;;;;;20.98;7.88;;;21.50;69.00;;;;;;10410082;28;20044;-54
2022/05/20 16:36:01;;;;;;;112.00;45.55;;;21.50;68.20;;;;;;10411980;28;20056;-54
2022/05/20 16:41:05;;;;;;;87.15;36.38;;;21.50;70.50;;;;;;10409999;28;20121;-51
2022/05/20 16:46:14;;;;;;;74.93;31.17;;;21.70;70.70;;;;;;10419307;28;20029;-53
2022/05/20 16:51:14;;;;;;;;;;;21.80;70.10;;;;;;10419526;28;20071;-48
2022/05/20 17:01:47;;;;;;;56.28;25.58;;;21.80;69.70;;;;;;10418535;28;20037;-56
2022/05/20 17:06:50;;;;;;;57.45;24.58;;;21.80;69.50;;;;;;10417506;28;20033;-56
2022/05/20 17:11:54;;;;;;;49.97;23.73;;;21.80;69.60;;;;;;10418304;28;20048;-55
2022/05/20 17:16:56;;;;;;;44.22;19.77;;;21.70;69.60;;;;;;10416882;28;20484;-55
2022/05/20 17:27:26;;;;;;;44.40;20.35;;;21.60;69.60;;;;;;10417784;28;20041;-55
2022/05/20 17:32:27;;;;;;;45.80;18.20;;;21.50;69.00;;;;;;10414245;28;20061;-56
2022/05/20 17:37:28;;;;;;;41.53;16.83;;;21.50;69.10;;;;;;10417093;28;20033;-55
2022/05/20 17:42:29;;;;;;;33.40;15.70;;;21.50;69.30;;;;;;10405496;28;20025;-55
2022/05/20 17:47:30;;;;;;;26.30;14.70;;;21.40;69.00;;;;;;10407318;28;20025;-55
2022/05/20 17:52:31;;;;;;;33.97;16.17;;;21.40;68.70;;;;;;10410021;28;20546;-56
2022/05/20 17:57:31;;;;;;;25.67;15.38;;;21.40;68.60;;;;;;10411662;28;20041;-55
2022/05/20 18:02:32;;;;;;;31.63;15.85;;;21.40;68.70;;;;;;10414599;28;20061;-55
2022/05/20 18:07:34;;;;;;;29.33;13.32;;;21.30;68.50;;;;;;10414790;28;20021;-55
2022/05/20 18:12:35;;;;;;;23.80;13.13;;;21.30;68.40;;;;;;10414635;28;20033;-54
2022/05/20 18:17:36;;;;;;;26.92;11.95;;;21.30;68.40;;;;;;10413305;28;20025;-56
2022/05/20 18:22:41;;;;;;;29.25;14.10;;;21.30;68.30;;;;;;10413558;28;20026;-55
2022/05/20 18:27:42;;;;;;;26.27;12.45;;;21.30;68.40;;;;;;10408455;28;20052;-56
2022/05/20 18:32:43;;;;;;;27.10;11.82;;;21.30;68.70;;;;;;10413610;28;20060;-55
2022/05/20 18:43:04;;;;;;;22.33;10.73;;;21.30;68.00;;;;;;10413903;28;20041;-55
2022/05/20 18:48:07;;;;;;;21.95;10.30;;;21.30;68.00;;;;;;10414228;28;20463;-56
2022/05/20 18:53:07;;;;;;;19.20;9.38;;;21.30;67.90;;;;;;10413167;28;20029;-56
2022/05/20 18:58:08;;;;;;;18.00;10.80;;;21.30;67.80;;;;;;10413576;28;20069;-55
2022/05/20 19:08:28;;;;;;;21.02;9.10;;;21.30;67.60;;;;;;10411107;28;20045;-55
2022/05/20 19:13:28;;;;;;;14.85;8.60;;;21.30;67.60;;;;;;10412541;28;20041;-56
2022/05/20 19:18:29;;;;;;;16.58;8.63;;;21.30;67.60;;;;;;10409548;28;20033;-55
2022/05/20 19:23:30;;;;;;;17.70;8.27;;;21.30;67.50;;;;;;10415148;28;20100;-55
2022/05/20 19:28:31;;;;;;;17.50;8.20;;;21.30;67.50;;;;;;10411781;28;20633;-55
2022/05/20 19:33:32;;;;;;;16.98;8.18;;;21.30;67.40;;;;;;10412145;28;20514;-54
2022/05/20 19:38:33;;;;;;;15.93;7.68;;;21.30;67.40;;;;;;10404484;28;20029;-55
2022/05/20 19:43:33;;;;;;;17.30;7.82;;;21.30;67.70;;;;;;10411504;28;20067;-54
2022/05/20 19:48:34;;;;;;;14.13;7.10;;;21.20;67.50;;;;;;10410683;28;20109;-55
2022/05/20 19:53:35;;;;;;;15.15;6.28;;;21.20;67.20;;;;;;10411038;28;20060;-55
2022/05/20 20:03:56;;;;;;;15.82;6.68;;;21.20;67.00;;;;;;10410991;28;20033;-55
2022/05/20 20:08:57;;;;;;;9.68;6.43;;;21.20;67.00;;;;;;10409541;28;20025;-55
2022/05/20 20:14:00;;;;;;;11.98;6.50;;;21.20;66.90;;;;;;10410152;28;20033;-55
2022/05/20 20:19:00;;;;;;;18.15;6.80;;;21.20;66.80;;;;;;10415637;28;20025;-54
2022/05/20 20:29:23;;;;;;;10.85;5.55;;;21.20;66.70;;;;;;10427540;28;20029;-55
2022/05/20 20:34:24;;;;;;;10.68;5.38;;;21.10;66.60;;;;;;10420164;28;20136;-54
2022/05/20 20:39:24;;;;;;;11.70;5.55;;;21.20;66.50;;;;;;10420317;28;20537;-55
2022/05/20 20:44:25;;;;;;;8.32;4.78;;;21.10;66.40;;;;;;10418384;28;20072;-56
2022/05/20 20:49:26;;;;;;;9.38;4.93;;;21.10;66.40;;;;;;10419853;28;20478;-55
2022/05/20 20:54:27;;;;;;;9.63;5.18;;;21.10;66.30;;;;;;10419862;28;20057;-54
2022/05/20 20:59:28;;;;;;;8.60;4.57;;;21.10;66.40;;;;;;10419221;28;20458;-56
2022/05/20 21:04:31;;;;;;;8.98;4.70;;;21.10;66.40;;;;;;10419443;28;20481;-54
2022/05/20 21:09:32;;;;;;;7.78;4.13;;;21.10;66.20;;;;;;10418893;28;20140;-55
2022/05/20 21:14:32;;;;;;;10.25;4.65;;;21.00;66.20;;;;;;10418929;28;20413;-55
2022/05/20 21:19:33;;;;;;;9.38;4.53;;;21.00;66.10;;;;;;10418736;28;20045;-53
2022/05/20 21:24:34;;;;;;;9.50;4.50;;;21.00;66.00;;;;;;10420265;28;20036;-53
2022/05/20 21:29:35;;;;;;;8.52;3.78;;;21.00;65.90;;;;;;10416108;28;20064;-54
2022/05/20 21:34:37;;;;;;;8.65;3.92;;;21.00;66.00;;;;;;10416396;28;20073;-53
2022/05/20 21:39:37;;;;;;;6.47;3.85;;;21.00;65.90;;;;;;10418012;28;20040;-55
2022/05/20 21:44:38;;;;;;;7.80;3.53;;;21.00;65.90;;;;;;10417414;28;20057;-55
2022/05/20 21:49:39;;;;;;;6.32;4.05;;;21.00;65.80;;;;;;10429314;28;20095;-55
2022/05/20 21:54:40;;;;;;;6.38;3.92;;;20.90;65.80;;;;;;10411927;28;20033;-55
2022/05/20 21:59:44;;;;;;;8.60;3.35;;;21.00;65.80;;;;;;10417108;28;20033;-55
2022/05/20 22:10:08;;;;;;;6.20;3.58;;;21.00;65.70;;;;;;10416333;28;20021;-55
2022/05/20 22:15:15;;;;;;;5.13;3.08;;;20.90;65.60;;;;;;10415479;28;20041;-54
2022/05/20 22:20:17;;;;;;;7.30;3.25;;;20.90;65.60;;;;;;10412890;28;20025;-54
2022/05/20 22:25:18;;;;;;;6.53;2.83;;;20.90;65.60;;;;;;10416340;28;20021;-53
2022/05/20 22:30:19;;;;;;;5.82;3.05;;;20.90;65.50;;;;;;10415935;28;20117;-54
2022/05/20 22:35:20;;;;;;;6.13;3.15;;;20.90;65.60;;;;;;10414163;28;20055;-54
2022/05/20 22:40:20;;;;;;;6.95;3.80;;;20.90;65.50;;;;;;10415156;28;20059;-54
2022/05/20 22:45:21;;;;;;;6.45;2.65;;;20.80;66.10;;;;;;10415328;28;20165;-55
2022/05/20 22:50:22;;;;;;;5.25;2.92;;;20.80;65.40;;;;;;10415344;28;20022;-55
2022/05/20 23:00:42;;;;;;;7.13;3.45;;;20.80;65.40;;;;;;10414466;28;20037;-55
2022/05/20 23:05:43;;;;;;;7.47;3.00;;;20.80;65.30;;;;;;10413566;28;20021;-54
2022/05/20 23:10:45;;;;;;;5.57;3.03;;;20.80;65.30;;;;;;10414446;28;20033;-53
2022/05/20 23:15:47;;;;;;;4.80;2.75;;;20.80;65.30;;;;;;10414297;28;20110;-54
2022/05/20 23:20:48;;;;;;;7.68;3.05;;;20.80;65.30;;;;;;10425709;28;20041;-53
2022/05/20 23:25:53;;;;;;;5.80;2.63;;;20.80;65.30;;;;;;10416271;28;20033;-55
2022/05/20 23:31:03;;;;;;;5.97;3.42;;;20.80;65.20;;;;;;10413922;28;20033;-54
2022/05/20 23:36:06;;;;;;;6.05;2.90;;;20.80;65.20;;;;;;10413429;28;20394;-54
2022/05/20 23:41:07;;;;;;;4.53;2.38;;;20.70;65.20;;;;;;10413513;28;20033;-54
2022/05/20 23:46:13;;;;;;;5.07;3.33;;;20.70;65.10;;;;;;10413709;28;20029;-55
2022/05/20 23:51:14;;;;;;;4.78;3.42;;;20.70;65.10;;;;;;10411329;28;20029;-55
